Coral Leaf — PHNI — position and weather

sailwx.info

Track history (hours):
 
Tides and Currents Weather Stations Pressure Air Temp Water Temp Dewpoint Dewpoint Depression Visibility Wind Speed Wind Dir Waves Ship Positions

Coral Leaf

Last reported at 2016-Sep-26 08:14 UTC. Time now 2016-Sep-27 12:11 UTC.
Position N 58°05' E 011°49'.

Length 108 m; draft 6.7 m.

Type: Ship (hazmat cat D). MMSI: 244036000.

Date/timePositionNaut miles runAvg speedWind from/ knotsBaromVisibWave heightAir tempDewpointWater temp
2016-Sep-26 08:14N 58°05' E 011°49'6211.0
2016-Sep-26 02:33N 57°03' E 011°44'1414.2
2016-Sep-26 01:33N 56°50' E 011°53'1514.5
2016-Sep-26 00:33N 56°36' E 011°59'4214.0
2016-Sep-25 21:34N 56°01' E 012°41'4711.8
2016-Sep-25 17:33N 55°16' E 013°04'1414.1
2016-Sep-25 16:32N 55°14' E 013°29'1414.2
2016-Sep-25 15:33N 55°14' E 013°53'1413.7
2016-Sep-25 14:33N 55°15' E 014°17'2914.4
2016-Sep-25 12:33N 55°33' E 014°57'1414.0
2016-Sep-25 11:33N 55°40' E 015°19'35514.2
2016-Sep-24 10:33N 59°40' E 023°28'1414.5
2016-Sep-24 09:33N 59°44' E 023°55'33 1.1
2016-Sep-23 04:19N 59°48' E 025°01'1115.0
2016-Sep-23 03:33N 59°45' E 024°39'1714.7
2016-Sep-23 02:25N 59°41' E 024°07'1314.9
2016-Sep-23 01:32N 59°37' E 023°42'36514.6
2016-Sep-22 00:33N 55°34' E 015°13'1515.4
2016-Sep-21 23:33N 55°27' E 014°49'1514.8
2016-Sep-21 22:33N 55°17' E 014°30'8714.5
2016-Sep-21 16:32N 54°34' E 012°18'7711.1
2016-Sep-21 09:33N 54°22' E 010°06'7 7.5
2016-Sep-21 08:33N 54°21' E 009°53'19 6.1
2016-Sep-21 05:29N 54°11' E 009°27'15 7.7
2016-Sep-21 03:33N 53°58' E 009°15'5 5.4
2016-Sep-21 02:33N 53°54' E 009°09'11312.5
2016-Sep-20 17:33N 53°40' E 005°59'5813.7
2016-Sep-20 13:18N 53°12' E 004°33'3914.3
2016-Sep-20 10:33N 52°38' E 003°59'5413.4
2016-Sep-20 06:33N 51°50' E 003°20'4110.2
2016-Sep-20 02:33N 51°23' E 004°09'10 3.5
2016-Sep-19 23:32N 51°15' E 004°20'0 0.0
2016-Sep-19 19:33N 51°15' E 004°20'0 0.0
2016-Sep-19 18:33N 51°15' E 004°20'0 0.0
2016-Sep-19 16:33N 51°15' E 004°20'0 0.0
2016-Sep-19 14:31N 51°15' E 004°20'0 0.0
2016-Sep-19 09:23N 51°15' E 004°20'0 0.0
2016-Sep-19 07:32N 51°15' E 004°20'0 0.0
2016-Sep-19 06:32N 51°15' E 004°20'11 3.6
2016-Sep-19 03:33N 51°22' E 004°08'1111.3
2016-Sep-19 02:33N 51°21' E 003°50'2914.3
2016-Sep-19 00:33N 51°41' E 003°17'6713.0
2016-Sep-18 19:24N 52°46' E 003°42'42714.3
2016-Sep-17 13:29N 59°01' E 009°45'6 0.2
2016-Sep-16 12:31N 59°06' E 009°38'5 1.7
2016-Sep-16 09:31N 59°02' E 009°44'  
Track history (hours):
 
Tides and Currents Weather Stations Pressure Air Temp Water Temp Dewpoint Dewpoint Depression Visibility Wind Speed Wind Dir Waves Ship Positions

Coral Leaf

Last reported at 2016-Sep-26 08:14 UTC. Time now 2016-Sep-27 12:11 UTC.
Position N 58°05' E 011°49'.

Length 108 m; draft 6.7 m.

Type: Ship (hazmat cat D). MMSI: 244036000.

Date/timePositionNaut miles runAvg speedWind from/ knotsBaromVisibWave heightAir tempDewpointWater temp
2016-Sep-26 08:14N 58°05' E 011°49'6211.0
2016-Sep-26 02:33N 57°03' E 011°44'1414.2
2016-Sep-26 01:33N 56°50' E 011°53'1514.5
2016-Sep-26 00:33N 56°36' E 011°59'4214.0
2016-Sep-25 21:34N 56°01' E 012°41'4711.8
2016-Sep-25 17:33N 55°16' E 013°04'1414.1
2016-Sep-25 16:32N 55°14' E 013°29'1414.2
2016-Sep-25 15:33N 55°14' E 013°53'1413.7
2016-Sep-25 14:33N 55°15' E 014°17'2914.4
2016-Sep-25 12:33N 55°33' E 014°57'1414.0
2016-Sep-25 11:33N 55°40' E 015°19'35514.2
2016-Sep-24 10:33N 59°40' E 023°28'1414.5
2016-Sep-24 09:33N 59°44' E 023°55'33 1.1
2016-Sep-23 04:19N 59°48' E 025°01'1115.0
2016-Sep-23 03:33N 59°45' E 024°39'1714.7
2016-Sep-23 02:25N 59°41' E 024°07'1314.9
2016-Sep-23 01:32N 59°37' E 023°42'36514.6
2016-Sep-22 00:33N 55°34' E 015°13'1515.4
2016-Sep-21 23:33N 55°27' E 014°49'1514.8
2016-Sep-21 22:33N 55°17' E 014°30'8714.5
2016-Sep-21 16:32N 54°34' E 012°18'7711.1
2016-Sep-21 09:33N 54°22' E 010°06'7 7.5
2016-Sep-21 08:33N 54°21' E 009°53'19 6.1
2016-Sep-21 05:29N 54°11' E 009°27'15 7.7
2016-Sep-21 03:33N 53°58' E 009°15'5 5.4
2016-Sep-21 02:33N 53°54' E 009°09'11312.5
2016-Sep-20 17:33N 53°40' E 005°59'5813.7
2016-Sep-20 13:18N 53°12' E 004°33'3914.3
2016-Sep-20 10:33N 52°38' E 003°59'5413.4
2016-Sep-20 06:33N 51°50' E 003°20'4110.2
2016-Sep-20 02:33N 51°23' E 004°09'10 3.5
2016-Sep-19 23:32N 51°15' E 004°20'0 0.0
2016-Sep-19 19:33N 51°15' E 004°20'0 0.0
2016-Sep-19 18:33N 51°15' E 004°20'0 0.0
2016-Sep-19 16:33N 51°15' E 004°20'0 0.0
2016-Sep-19 14:31N 51°15' E 004°20'0 0.0
2016-Sep-19 09:23N 51°15' E 004°20'0 0.0
2016-Sep-19 07:32N 51°15' E 004°20'0 0.0
2016-Sep-19 06:32N 51°15' E 004°20'11 3.6
2016-Sep-19 03:33N 51°22' E 004°08'1111.3
2016-Sep-19 02:33N 51°21' E 003°50'2914.3
2016-Sep-19 00:33N 51°41' E 003°17'6713.0
2016-Sep-18 19:24N 52°46' E 003°42'42714.3
2016-Sep-17 13:29N 59°01' E 009°45'6 0.2
2016-Sep-16 12:31N 59°06' E 009°38'5 1.7
2016-Sep-16 09:31N 59°02' E 009°44'  

Dump ship's entire track history